Lindsey — WDC3699 — position and weather

sailwx.info

Track history (hours):
 
Tides and Currents Weather Stations Pressure Air Temp Water Temp Dewpoint Dewpoint Depression Visibility Wind Speed Wind Dir Waves Ship Positions

Lindsey

Owner: Wilmington Tug, Inc., New Castle, DE. More information available from US FCC via Universal Licensing System and Coast Guard Vessel Documentation Center.

Last reported at 2018-Jan-20 15:00 UTC. Time now 2018-Jan-20 15:28 UTC.
Position N 39°43' W 075°31'.

Length 20 m; draft 3.9 m.

Type: Tug. MMSI: 367012640.

Date/timePositionNaut miles runAvg speedWind from/ knotsBaromVisibWave heightAir tempDewpointWater temp
2018-Jan-20 15:00N 39°43' W 075°31'0 0.1
2018-Jan-20 14:30N 39°43' W 075°31'0 0.0
2018-Jan-20 14:00N 39°43' W 075°31'0 0.0
2018-Jan-20 13:30N 39°43' W 075°31'0 0.0
2018-Jan-20 13:00N 39°43' W 075°31'0 0.0
2018-Jan-20 12:30N 39°43' W 075°31'0 0.0
2018-Jan-20 12:00N 39°43' W 075°31'0 0.0
2018-Jan-20 11:30N 39°43' W 075°31'0 0.0
2018-Jan-20 11:00N 39°43' W 075°31'0 0.0
2018-Jan-20 10:30N 39°43' W 075°31'0 0.0
2018-Jan-20 10:00N 39°43' W 075°31'0 0.0
2018-Jan-20 09:30N 39°43' W 075°31'0 0.0
2018-Jan-20 09:00N 39°43' W 075°31'0 0.0
2018-Jan-20 08:30N 39°43' W 075°31'0 0.0
2018-Jan-20 08:00N 39°43' W 075°31'0 0.0
2018-Jan-20 07:30N 39°43' W 075°31'0 0.0
2018-Jan-20 06:59N 39°43' W 075°31'0 0.0
2018-Jan-20 06:30N 39°43' W 075°31'0 0.0
2018-Jan-20 06:01N 39°43' W 075°31'0 0.0
2018-Jan-20 05:30N 39°43' W 075°31'0 0.0
2018-Jan-20 05:00N 39°43' W 075°31'0 0.0
2018-Jan-20 04:30N 39°43' W 075°31'0 0.0
2018-Jan-20 04:00N 39°43' W 075°31'0 0.0
2018-Jan-20 03:31N 39°43' W 075°31'0 0.0
2018-Jan-20 03:00N 39°43' W 075°31'0 0.0
2018-Jan-20 02:30N 39°43' W 075°31'0 0.0
2018-Jan-20 02:00N 39°43' W 075°31'0 0.0
2018-Jan-20 01:30N 39°43' W 075°31'0 0.0
2018-Jan-20 01:00N 39°43' W 075°31'0 0.0
2018-Jan-20 00:30N 39°43' W 075°31'0 0.0
2018-Jan-20 00:00N 39°43' W 075°31'0 0.0
2018-Jan-19 23:31N 39°43' W 075°31'0 0.0
2018-Jan-19 23:00N 39°43' W 075°31'0 0.0
2018-Jan-19 22:30N 39°43' W 075°31'0 0.0
2018-Jan-19 22:00N 39°43' W 075°31'0 0.0
2018-Jan-19 21:30N 39°43' W 075°31'0 0.0
2018-Jan-19 21:00N 39°43' W 075°31'0 0.0
2018-Jan-19 20:30N 39°43' W 075°31'0 0.0
2018-Jan-19 20:00N 39°43' W 075°31'0 0.0
2018-Jan-19 19:30N 39°43' W 075°31'0 0.0
2018-Jan-19 19:00N 39°43' W 075°31'0 0.0
2018-Jan-19 18:30N 39°43' W 075°31'0 0.0
2018-Jan-19 18:00N 39°43' W 075°31'2 3.8
2018-Jan-19 17:30N 39°45' W 075°30'4 7.7
2018-Jan-19 17:00N 39°48' W 075°26'3 6.9
2018-Jan-19 16:30N 39°49' W 075°23'4 7.9
2018-Jan-19 16:00N 39°51' W 075°18'1 2.6
2018-Jan-19 15:30N 39°51' W 075°16'0 0.0
2018-Jan-19 15:00N 39°51' W 075°16'2 4.0
2018-Jan-19 14:30N 39°51' W 075°19'5 9.6
2018-Jan-19 14:00N 39°49' W 075°24'4 8.6
2018-Jan-19 13:30N 39°46' W 075°29'3 6.7
2018-Jan-19 13:00N 39°43' W 075°31'0 0.2
2018-Jan-19 12:30N 39°43' W 075°31'0 0.2
2018-Jan-19 12:00N 39°43' W 075°31'0 0.0
2018-Jan-19 11:30N 39°43' W 075°31'0 0.0
2018-Jan-19 11:00N 39°43' W 075°31'0 0.0
2018-Jan-19 10:30N 39°43' W 075°31'0 0.0
2018-Jan-19 10:01N 39°43' W 075°31'0 0.0
2018-Jan-19 09:31N 39°43' W 075°31'0 0.0
2018-Jan-19 09:00N 39°43' W 075°31'0 0.0
2018-Jan-19 08:30N 39°43' W 075°31'0 0.0
2018-Jan-19 08:00N 39°43' W 075°31'5 9.2
2018-Jan-19 07:30N 39°47' W 075°28'3 6.4
2018-Jan-19 07:00N 39°49' W 075°24'0 0.0
2018-Jan-19 06:30N 39°49' W 075°24'0 0.0
2018-Jan-19 06:00N 39°49' W 075°24'0 0.0
2018-Jan-19 05:30N 39°49' W 075°24'0 0.0
2018-Jan-19 05:00N 39°49' W 075°24'1 1.6
2018-Jan-19 04:30N 39°48' W 075°25'0 0.9
2018-Jan-19 04:00N 39°48' W 075°25'0 0.7
2018-Jan-19 03:30N 39°49' W 075°24'0 0.0
2018-Jan-19 03:01N 39°49' W 075°24'1 1.3
2018-Jan-19 02:30N 39°48' W 075°25'0 0.0
2018-Jan-19 02:01N 39°48' W 075°25'0 0.1
2018-Jan-19 01:30N 39°48' W 075°25'0 0.0
2018-Jan-19 01:00N 39°48' W 075°25'1 2.5
2018-Jan-19 00:30N 39°48' W 075°26'4 7.9
2018-Jan-19 00:00N 39°45' W 075°30'2 3.8
2018-Jan-18 23:30N 39°43' W 075°31'0 0.0
2018-Jan-18 23:00N 39°43' W 075°31'0 0.0
2018-Jan-18 22:30N 39°43' W 075°31'0 0.0
2018-Jan-18 22:00N 39°43' W 075°31'0 0.0
2018-Jan-18 21:30N 39°43' W 075°31'0 0.0
2018-Jan-18 21:00N 39°43' W 075°31'0 0.0
2018-Jan-18 20:07N 39°43' W 075°31'0 0.1
2018-Jan-18 20:00N 39°43' W 075°31'0 0.0
2018-Jan-18 19:30N 39°43' W 075°31'0 0.9
2018-Jan-18 19:00N 39°43' W 075°32'0 0.0
2018-Jan-18 18:30N 39°43' W 075°32'0 0.0
2018-Jan-18 18:00N 39°43' W 075°32'0 0.9
2018-Jan-18 17:30N 39°43' W 075°31'0 0.0
2018-Jan-18 17:00N 39°43' W 075°31'0 0.0
2018-Jan-18 16:30N 39°43' W 075°31'0 0.0
2018-Jan-18 16:00N 39°43' W 075°31'0 0.0
2018-Jan-18 15:30N 39°43' W 075°31'0 0.0
2018-Jan-18 15:00N 39°43' W 075°31'0 0.0
2018-Jan-18 14:30N 39°43' W 075°31'0 0.0
2018-Jan-18 14:00N 39°43' W 075°31'0 0.0
2018-Jan-18 13:31N 39°43' W 075°31'0 0.0
2018-Jan-18 13:00N 39°43' W 075°31'0 0.0
2018-Jan-18 12:30N 39°43' W 075°31'0 0.0
2018-Jan-18 12:00N 39°43' W 075°31'0 0.0
2018-Jan-18 11:30N 39°43' W 075°31'0 0.0
2018-Jan-18 11:00N 39°43' W 075°31'0 0.0
2018-Jan-18 10:30N 39°43' W 075°31'0 0.0
2018-Jan-18 10:00N 39°43' W 075°31'0 0.0
2018-Jan-18 09:30N 39°43' W 075°31'0 0.6
2018-Jan-18 09:00N 39°43' W 075°31'5 9.7
2018-Jan-18 08:30N 39°39' W 075°34'4 7.7
2018-Jan-18 08:01N 39°35' W 075°36'0 0.0
2018-Jan-18 07:30N 39°35' W 075°36'0 0.0
2018-Jan-18 07:00N 39°35' W 075°36'2 3.3
2018-Jan-18 06:29N 39°34' W 075°34'1 1.7
2018-Jan-18 06:01N 39°35' W 075°34'1 2.1
2018-Jan-18 05:30N 39°35' W 075°35'1 1.0
2018-Jan-18 05:00N 39°35' W 075°35'1 1.4
2018-Jan-18 04:30N 39°35' W 075°35'1 2.3
2018-Jan-18 04:00N 39°34' W 075°33'2 3.6
2018-Jan-18 03:30N 39°35' W 075°35'0 0.0
2018-Jan-18 03:00N 39°35' W 075°35'0 0.1
2018-Jan-18 02:30N 39°35' W 075°35'1 1.5
2018-Jan-18 02:00N 39°35' W 075°34'1 2.1
2018-Jan-18 01:30N 39°35' W 075°36'0 0.3
2018-Jan-18 01:00N 39°35' W 075°35'0 0.0
2018-Jan-18 00:00N 39°35' W 075°36'0 0.1
2018-Jan-17 23:57N 39°35' W 075°35'  
2018-Jan-12 15:00N 39°43' W 075°31'0 0.0
2018-Jan-12 14:30N 39°43' W 075°31'0 0.0
2018-Jan-12 14:00N 39°43' W 075°31'0 0.0
2018-Jan-12 13:30N 39°43' W 075°31'0 0.0
2018-Jan-12 13:00N 39°43' W 075°31'0 0.0
2018-Jan-12 12:30N 39°43' W 075°31'0 0.0
2018-Jan-12 12:00N 39°43' W 075°31'0 0.0
2018-Jan-12 11:30N 39°43' W 075°31'0 0.0
2018-Jan-12 11:00N 39°43' W 075°31'0 0.0
2018-Jan-12 10:30N 39°43' W 075°31'0 0.0
2018-Jan-12 10:00N 39°43' W 075°31'0 0.0
2018-Jan-12 09:30N 39°43' W 075°31'0 0.0
2018-Jan-12 09:00N 39°43' W 075°31'0 0.6
2018-Jan-12 08:30N 39°43' W 075°31'0 0.1
2018-Jan-12 08:00N 39°43' W 075°31'1 1.2
2018-Jan-12 07:30N 39°43' W 075°31'2 4.6
2018-Jan-12 07:00N 39°41' W 075°32'2 4.6
2018-Jan-12 06:30N 39°43' W 075°31'0 0.0
2018-Jan-12 06:00N 39°43' W 075°31'0 0.0
2018-Jan-12 05:30N 39°43' W 075°31'0 0.0
2018-Jan-12 05:00N 39°43' W 075°31'0 0.0
2018-Jan-12 04:30N 39°43' W 075°31'0 0.0
2018-Jan-12 03:59N 39°43' W 075°31'3 5.8
2018-Jan-12 03:30N 39°40' W 075°32'3 5.6
2018-Jan-12 03:00N 39°38' W 075°34'3 5.8
2018-Jan-12 02:30N 39°35' W 075°34'1 2.1
2018-Jan-12 02:00N 39°35' W 075°35'1 1.1
2018-Jan-12 01:30N 39°35' W 075°35'0 0.1
2018-Jan-12 01:00N 39°35' W 075°35'2 4.4
2018-Jan-12 00:30N 39°34' W 075°33'4 8.9
2018-Jan-12 00:00N 39°38' W 075°34'3 5.5
2018-Jan-11 23:30N 39°41' W 075°32'2 4.8
2018-Jan-11 23:00N 39°43' W 075°31'0 0.0
2018-Jan-11 22:30N 39°43' W 075°31'0 0.0
2018-Jan-11 22:00N 39°43' W 075°31'0 0.0
2018-Jan-11 21:30N 39°43' W 075°31'0 0.5
2018-Jan-11 21:00N 39°43' W 075°31'0 0.9
2018-Jan-11 20:30N 39°43' W 075°31'0 0.2
2018-Jan-11 20:00N 39°43' W 075°31'0 0.3
2018-Jan-11 19:30N 39°43' W 075°31'0 0.0
2018-Jan-11 19:00N 39°43' W 075°31'0 0.0
2018-Jan-11 18:30N 39°43' W 075°31'0 0.0
2018-Jan-11 18:00N 39°43' W 075°31'0 0.0
2018-Jan-11 17:30N 39°43' W 075°31'0 0.0
2018-Jan-11 17:00N 39°43' W 075°31'0 0.0
2018-Jan-11 16:30N 39°43' W 075°31'0 0.0
2018-Jan-11 16:00N 39°43' W 075°31'0 0.0
2018-Jan-11 15:30N 39°43' W 075°31'0 0.8
2018-Jan-11 15:00N 39°43' W 075°31'0 0.0
2018-Jan-11 14:30N 39°43' W 075°31'0 0.0
2018-Jan-11 14:00N 39°43' W 075°31'0 0.4
2018-Jan-11 13:30N 39°43' W 075°31'0 0.4
2018-Jan-11 13:00N 39°43' W 075°31'0 0.0
2018-Jan-11 12:30N 39°43' W 075°31'0 0.0
2018-Jan-11 12:00N 39°43' W 075°31'0 0.0
2018-Jan-11 11:30N 39°43' W 075°31'0 0.0
2018-Jan-11 11:00N 39°43' W 075°31'0 0.0
2018-Jan-11 10:30N 39°43' W 075°31'0 0.0
2018-Jan-11 10:00N 39°43' W 075°31'0 0.0
2018-Jan-11 09:30N 39°43' W 075°31'0 0.0
2018-Jan-11 09:00N 39°43' W 075°31'0 0.0
2018-Jan-11 08:30N 39°43' W 075°31'0 0.0
2018-Jan-11 08:00N 39°43' W 075°31'0 0.0
2018-Jan-11 07:30N 39°43' W 075°31'0 0.0
2018-Jan-11 07:00N 39°43' W 075°31'0 0.0
2018-Jan-11 06:30N 39°43' W 075°31'0 0.0
2018-Jan-11 06:00N 39°43' W 075°31'0 0.0
2018-Jan-11 05:30N 39°43' W 075°31'0 0.0
2018-Jan-11 05:00N 39°43' W 075°31'0 0.0
2018-Jan-11 04:30N 39°43' W 075°31'0 0.0
2018-Jan-11 04:00N 39°43' W 075°31'0 0.0
2018-Jan-11 03:30N 39°43' W 075°31'0 0.0
2018-Jan-11 03:00N 39°43' W 075°31'0 0.0
2018-Jan-11 02:30N 39°43' W 075°31'0 0.0
2018-Jan-11 02:00N 39°43' W 075°31'0 0.0
2018-Jan-11 01:30N 39°43' W 075°31'0 0.0
2018-Jan-11 01:00N 39°43' W 075°31'0 0.3
2018-Jan-11 00:30N 39°43' W 075°31'0 0.3
2018-Jan-11 00:00N 39°43' W 075°31'1 1.3
2018-Jan-10 23:30N 39°43' W 075°32'0 0.0
2018-Jan-10 23:00N 39°43' W 075°32'1 1.8
2018-Jan-10 22:30N 39°43' W 075°31'2 4.8
2018-Jan-10 22:00N 39°45' W 075°29'3 6.6
2018-Jan-10 21:30N 39°48' W 075°26'1 2.5
2018-Jan-10 21:00N 39°48' W 075°25'0 0.0
2018-Jan-10 20:30N 39°48' W 075°25'1 1.7
2018-Jan-10 20:00N 39°48' W 075°26'5 9.5
2018-Jan-10 19:30N 39°44' W 075°30'1 2.9
2018-Jan-10 19:00N 39°43' W 075°31'0 0.0
2018-Jan-10 18:30N 39°43' W 075°31'0 0.0
2018-Jan-10 18:00N 39°43' W 075°31'0 0.0
2018-Jan-10 17:30N 39°43' W 075°31'0 0.0
2018-Jan-10 17:00N 39°43' W 075°31'0 0.0
2018-Jan-10 16:30N 39°43' W 075°31'0 0.0
2018-Jan-10 16:00N 39°43' W 075°31'0 0.0
2018-Jan-10 15:30N 39°43' W 075°31'  
Track history (hours):
 
Tides and Currents Weather Stations Pressure Air Temp Water Temp Dewpoint Dewpoint Depression Visibility Wind Speed Wind Dir Waves Ship Positions

Lindsey

Owner: Wilmington Tug, Inc., New Castle, DE. More information available from US FCC via Universal Licensing System and Coast Guard Vessel Documentation Center.

Last reported at 2018-Jan-20 15:00 UTC. Time now 2018-Jan-20 15:28 UTC.
Position N 39°43' W 075°31'.

Length 20 m; draft 3.9 m.

Type: Tug. MMSI: 367012640.

Date/timePositionNaut miles runAvg speedWind from/ knotsBaromVisibWave heightAir tempDewpointWater temp
2018-Jan-20 15:00N 39°43' W 075°31'0 0.1
2018-Jan-20 14:30N 39°43' W 075°31'0 0.0
2018-Jan-20 14:00N 39°43' W 075°31'0 0.0
2018-Jan-20 13:30N 39°43' W 075°31'0 0.0
2018-Jan-20 13:00N 39°43' W 075°31'0 0.0
2018-Jan-20 12:30N 39°43' W 075°31'0 0.0
2018-Jan-20 12:00N 39°43' W 075°31'0 0.0
2018-Jan-20 11:30N 39°43' W 075°31'0 0.0
2018-Jan-20 11:00N 39°43' W 075°31'0 0.0
2018-Jan-20 10:30N 39°43' W 075°31'0 0.0
2018-Jan-20 10:00N 39°43' W 075°31'0 0.0
2018-Jan-20 09:30N 39°43' W 075°31'0 0.0
2018-Jan-20 09:00N 39°43' W 075°31'0 0.0
2018-Jan-20 08:30N 39°43' W 075°31'0 0.0
2018-Jan-20 08:00N 39°43' W 075°31'0 0.0
2018-Jan-20 07:30N 39°43' W 075°31'0 0.0
2018-Jan-20 06:59N 39°43' W 075°31'0 0.0
2018-Jan-20 06:30N 39°43' W 075°31'0 0.0
2018-Jan-20 06:01N 39°43' W 075°31'0 0.0
2018-Jan-20 05:30N 39°43' W 075°31'0 0.0
2018-Jan-20 05:00N 39°43' W 075°31'0 0.0
2018-Jan-20 04:30N 39°43' W 075°31'0 0.0
2018-Jan-20 04:00N 39°43' W 075°31'0 0.0
2018-Jan-20 03:31N 39°43' W 075°31'0 0.0
2018-Jan-20 03:00N 39°43' W 075°31'0 0.0
2018-Jan-20 02:30N 39°43' W 075°31'0 0.0
2018-Jan-20 02:00N 39°43' W 075°31'0 0.0
2018-Jan-20 01:30N 39°43' W 075°31'0 0.0
2018-Jan-20 01:00N 39°43' W 075°31'0 0.0
2018-Jan-20 00:30N 39°43' W 075°31'0 0.0
2018-Jan-20 00:00N 39°43' W 075°31'0 0.0
2018-Jan-19 23:31N 39°43' W 075°31'0 0.0
2018-Jan-19 23:00N 39°43' W 075°31'0 0.0
2018-Jan-19 22:30N 39°43' W 075°31'0 0.0
2018-Jan-19 22:00N 39°43' W 075°31'0 0.0
2018-Jan-19 21:30N 39°43' W 075°31'0 0.0
2018-Jan-19 21:00N 39°43' W 075°31'0 0.0
2018-Jan-19 20:30N 39°43' W 075°31'0 0.0
2018-Jan-19 20:00N 39°43' W 075°31'0 0.0
2018-Jan-19 19:30N 39°43' W 075°31'0 0.0
2018-Jan-19 19:00N 39°43' W 075°31'0 0.0
2018-Jan-19 18:30N 39°43' W 075°31'0 0.0
2018-Jan-19 18:00N 39°43' W 075°31'2 3.8
2018-Jan-19 17:30N 39°45' W 075°30'4 7.7
2018-Jan-19 17:00N 39°48' W 075°26'3 6.9
2018-Jan-19 16:30N 39°49' W 075°23'4 7.9
2018-Jan-19 16:00N 39°51' W 075°18'1 2.6
2018-Jan-19 15:30N 39°51' W 075°16'0 0.0
2018-Jan-19 15:00N 39°51' W 075°16'2 4.0
2018-Jan-19 14:30N 39°51' W 075°19'5 9.6
2018-Jan-19 14:00N 39°49' W 075°24'4 8.6
2018-Jan-19 13:30N 39°46' W 075°29'3 6.7
2018-Jan-19 13:00N 39°43' W 075°31'0 0.2
2018-Jan-19 12:30N 39°43' W 075°31'0 0.2
2018-Jan-19 12:00N 39°43' W 075°31'0 0.0
2018-Jan-19 11:30N 39°43' W 075°31'0 0.0
2018-Jan-19 11:00N 39°43' W 075°31'0 0.0
2018-Jan-19 10:30N 39°43' W 075°31'0 0.0
2018-Jan-19 10:01N 39°43' W 075°31'0 0.0
2018-Jan-19 09:31N 39°43' W 075°31'0 0.0
2018-Jan-19 09:00N 39°43' W 075°31'0 0.0
2018-Jan-19 08:30N 39°43' W 075°31'0 0.0
2018-Jan-19 08:00N 39°43' W 075°31'5 9.2
2018-Jan-19 07:30N 39°47' W 075°28'3 6.4
2018-Jan-19 07:00N 39°49' W 075°24'0 0.0
2018-Jan-19 06:30N 39°49' W 075°24'0 0.0
2018-Jan-19 06:00N 39°49' W 075°24'0 0.0
2018-Jan-19 05:30N 39°49' W 075°24'0 0.0
2018-Jan-19 05:00N 39°49' W 075°24'1 1.6
2018-Jan-19 04:30N 39°48' W 075°25'0 0.9
2018-Jan-19 04:00N 39°48' W 075°25'0 0.7
2018-Jan-19 03:30N 39°49' W 075°24'0 0.0
2018-Jan-19 03:01N 39°49' W 075°24'1 1.3
2018-Jan-19 02:30N 39°48' W 075°25'0 0.0
2018-Jan-19 02:01N 39°48' W 075°25'0 0.1
2018-Jan-19 01:30N 39°48' W 075°25'0 0.0
2018-Jan-19 01:00N 39°48' W 075°25'1 2.5
2018-Jan-19 00:30N 39°48' W 075°26'4 7.9
2018-Jan-19 00:00N 39°45' W 075°30'2 3.8
2018-Jan-18 23:30N 39°43' W 075°31'0 0.0
2018-Jan-18 23:00N 39°43' W 075°31'0 0.0
2018-Jan-18 22:30N 39°43' W 075°31'0 0.0
2018-Jan-18 22:00N 39°43' W 075°31'0 0.0
2018-Jan-18 21:30N 39°43' W 075°31'0 0.0
2018-Jan-18 21:00N 39°43' W 075°31'0 0.0
2018-Jan-18 20:07N 39°43' W 075°31'0 0.1
2018-Jan-18 20:00N 39°43' W 075°31'0 0.0
2018-Jan-18 19:30N 39°43' W 075°31'0 0.9
2018-Jan-18 19:00N 39°43' W 075°32'0 0.0
2018-Jan-18 18:30N 39°43' W 075°32'0 0.0
2018-Jan-18 18:00N 39°43' W 075°32'0 0.9
2018-Jan-18 17:30N 39°43' W 075°31'0 0.0
2018-Jan-18 17:00N 39°43' W 075°31'0 0.0
2018-Jan-18 16:30N 39°43' W 075°31'0 0.0
2018-Jan-18 16:00N 39°43' W 075°31'0 0.0
2018-Jan-18 15:30N 39°43' W 075°31'0 0.0
2018-Jan-18 15:00N 39°43' W 075°31'0 0.0
2018-Jan-18 14:30N 39°43' W 075°31'0 0.0
2018-Jan-18 14:00N 39°43' W 075°31'0 0.0
2018-Jan-18 13:31N 39°43' W 075°31'0 0.0
2018-Jan-18 13:00N 39°43' W 075°31'0 0.0
2018-Jan-18 12:30N 39°43' W 075°31'0 0.0
2018-Jan-18 12:00N 39°43' W 075°31'0 0.0
2018-Jan-18 11:30N 39°43' W 075°31'0 0.0
2018-Jan-18 11:00N 39°43' W 075°31'0 0.0
2018-Jan-18 10:30N 39°43' W 075°31'0 0.0
2018-Jan-18 10:00N 39°43' W 075°31'0 0.0
2018-Jan-18 09:30N 39°43' W 075°31'0 0.6
2018-Jan-18 09:00N 39°43' W 075°31'5 9.7
2018-Jan-18 08:30N 39°39' W 075°34'4 7.7
2018-Jan-18 08:01N 39°35' W 075°36'0 0.0
2018-Jan-18 07:30N 39°35' W 075°36'0 0.0
2018-Jan-18 07:00N 39°35' W 075°36'2 3.3
2018-Jan-18 06:29N 39°34' W 075°34'1 1.7
2018-Jan-18 06:01N 39°35' W 075°34'1 2.1
2018-Jan-18 05:30N 39°35' W 075°35'1 1.0
2018-Jan-18 05:00N 39°35' W 075°35'1 1.4
2018-Jan-18 04:30N 39°35' W 075°35'1 2.3
2018-Jan-18 04:00N 39°34' W 075°33'2 3.6
2018-Jan-18 03:30N 39°35' W 075°35'0 0.0
2018-Jan-18 03:00N 39°35' W 075°35'0 0.1
2018-Jan-18 02:30N 39°35' W 075°35'1 1.5
2018-Jan-18 02:00N 39°35' W 075°34'1 2.1
2018-Jan-18 01:30N 39°35' W 075°36'0 0.3
2018-Jan-18 01:00N 39°35' W 075°35'0 0.0
2018-Jan-18 00:00N 39°35' W 075°36'0 0.1
2018-Jan-17 23:57N 39°35' W 075°35'  
2018-Jan-12 15:00N 39°43' W 075°31'0 0.0
2018-Jan-12 14:30N 39°43' W 075°31'0 0.0
2018-Jan-12 14:00N 39°43' W 075°31'0 0.0
2018-Jan-12 13:30N 39°43' W 075°31'0 0.0
2018-Jan-12 13:00N 39°43' W 075°31'0 0.0
2018-Jan-12 12:30N 39°43' W 075°31'0 0.0
2018-Jan-12 12:00N 39°43' W 075°31'0 0.0
2018-Jan-12 11:30N 39°43' W 075°31'0 0.0
2018-Jan-12 11:00N 39°43' W 075°31'0 0.0
2018-Jan-12 10:30N 39°43' W 075°31'0 0.0
2018-Jan-12 10:00N 39°43' W 075°31'0 0.0
2018-Jan-12 09:30N 39°43' W 075°31'0 0.0
2018-Jan-12 09:00N 39°43' W 075°31'0 0.6
2018-Jan-12 08:30N 39°43' W 075°31'0 0.1
2018-Jan-12 08:00N 39°43' W 075°31'1 1.2
2018-Jan-12 07:30N 39°43' W 075°31'2 4.6
2018-Jan-12 07:00N 39°41' W 075°32'2 4.6
2018-Jan-12 06:30N 39°43' W 075°31'0 0.0
2018-Jan-12 06:00N 39°43' W 075°31'0 0.0
2018-Jan-12 05:30N 39°43' W 075°31'0 0.0
2018-Jan-12 05:00N 39°43' W 075°31'0 0.0
2018-Jan-12 04:30N 39°43' W 075°31'0 0.0
2018-Jan-12 03:59N 39°43' W 075°31'3 5.8
2018-Jan-12 03:30N 39°40' W 075°32'3 5.6
2018-Jan-12 03:00N 39°38' W 075°34'3 5.8
2018-Jan-12 02:30N 39°35' W 075°34'1 2.1
2018-Jan-12 02:00N 39°35' W 075°35'1 1.1
2018-Jan-12 01:30N 39°35' W 075°35'0 0.1
2018-Jan-12 01:00N 39°35' W 075°35'2 4.4
2018-Jan-12 00:30N 39°34' W 075°33'4 8.9
2018-Jan-12 00:00N 39°38' W 075°34'3 5.5
2018-Jan-11 23:30N 39°41' W 075°32'2 4.8
2018-Jan-11 23:00N 39°43' W 075°31'0 0.0
2018-Jan-11 22:30N 39°43' W 075°31'0 0.0
2018-Jan-11 22:00N 39°43' W 075°31'0 0.0
2018-Jan-11 21:30N 39°43' W 075°31'0 0.5
2018-Jan-11 21:00N 39°43' W 075°31'0 0.9
2018-Jan-11 20:30N 39°43' W 075°31'0 0.2
2018-Jan-11 20:00N 39°43' W 075°31'0 0.3
2018-Jan-11 19:30N 39°43' W 075°31'0 0.0
2018-Jan-11 19:00N 39°43' W 075°31'0 0.0
2018-Jan-11 18:30N 39°43' W 075°31'0 0.0
2018-Jan-11 18:00N 39°43' W 075°31'0 0.0
2018-Jan-11 17:30N 39°43' W 075°31'0 0.0
2018-Jan-11 17:00N 39°43' W 075°31'0 0.0
2018-Jan-11 16:30N 39°43' W 075°31'0 0.0
2018-Jan-11 16:00N 39°43' W 075°31'0 0.0
2018-Jan-11 15:30N 39°43' W 075°31'0 0.8
2018-Jan-11 15:00N 39°43' W 075°31'0 0.0
2018-Jan-11 14:30N 39°43' W 075°31'0 0.0
2018-Jan-11 14:00N 39°43' W 075°31'0 0.4
2018-Jan-11 13:30N 39°43' W 075°31'0 0.4
2018-Jan-11 13:00N 39°43' W 075°31'0 0.0
2018-Jan-11 12:30N 39°43' W 075°31'0 0.0
2018-Jan-11 12:00N 39°43' W 075°31'0 0.0
2018-Jan-11 11:30N 39°43' W 075°31'0 0.0
2018-Jan-11 11:00N 39°43' W 075°31'0 0.0
2018-Jan-11 10:30N 39°43' W 075°31'0 0.0
2018-Jan-11 10:00N 39°43' W 075°31'0 0.0
2018-Jan-11 09:30N 39°43' W 075°31'0 0.0
2018-Jan-11 09:00N 39°43' W 075°31'0 0.0
2018-Jan-11 08:30N 39°43' W 075°31'0 0.0
2018-Jan-11 08:00N 39°43' W 075°31'0 0.0
2018-Jan-11 07:30N 39°43' W 075°31'0 0.0
2018-Jan-11 07:00N 39°43' W 075°31'0 0.0
2018-Jan-11 06:30N 39°43' W 075°31'0 0.0
2018-Jan-11 06:00N 39°43' W 075°31'0 0.0
2018-Jan-11 05:30N 39°43' W 075°31'0 0.0
2018-Jan-11 05:00N 39°43' W 075°31'0 0.0
2018-Jan-11 04:30N 39°43' W 075°31'0 0.0
2018-Jan-11 04:00N 39°43' W 075°31'0 0.0
2018-Jan-11 03:30N 39°43' W 075°31'0 0.0
2018-Jan-11 03:00N 39°43' W 075°31'0 0.0
2018-Jan-11 02:30N 39°43' W 075°31'0 0.0
2018-Jan-11 02:00N 39°43' W 075°31'0 0.0
2018-Jan-11 01:30N 39°43' W 075°31'0 0.0
2018-Jan-11 01:00N 39°43' W 075°31'0 0.3
2018-Jan-11 00:30N 39°43' W 075°31'0 0.3
2018-Jan-11 00:00N 39°43' W 075°31'1 1.3
2018-Jan-10 23:30N 39°43' W 075°32'0 0.0
2018-Jan-10 23:00N 39°43' W 075°32'1 1.8
2018-Jan-10 22:30N 39°43' W 075°31'2 4.8
2018-Jan-10 22:00N 39°45' W 075°29'3 6.6
2018-Jan-10 21:30N 39°48' W 075°26'1 2.5
2018-Jan-10 21:00N 39°48' W 075°25'0 0.0
2018-Jan-10 20:30N 39°48' W 075°25'1 1.7
2018-Jan-10 20:00N 39°48' W 075°26'5 9.5
2018-Jan-10 19:30N 39°44' W 075°30'1 2.9
2018-Jan-10 19:00N 39°43' W 075°31'0 0.0
2018-Jan-10 18:30N 39°43' W 075°31'0 0.0
2018-Jan-10 18:00N 39°43' W 075°31'0 0.0
2018-Jan-10 17:30N 39°43' W 075°31'0 0.0
2018-Jan-10 17:00N 39°43' W 075°31'0 0.0
2018-Jan-10 16:30N 39°43' W 075°31'0 0.0
2018-Jan-10 16:00N 39°43' W 075°31'0 0.0
2018-Jan-10 15:30N 39°43' W 075°31'  

Dump ship's entire track history